Yeaddiss, Kentucky
Current Conditions -  °F | °C
As of 11:15 PM on Sunday 23 Nov 2014 (Local Time) from KI35 Reporting Station
Overcast Overcast  
Wind Chill: 61°   Ceiling: 3200
Heat Index: 61°   Visibility: 10mi
Dew Point: 50°   Wind: 7mph
Humidity: 68%   Direction: 170°S
Pressure: 29.55"   Gusts: 33mph
Location:  37.05°N, 83.25°W
Report Text: KI35 240415Z AUTO 17006G29KT 10SM OVC032 16/10 A2955 RMK AO1
Loading
Personal Weather Stations






























Interactive Weather Map New forecast layout! Learn more

10-Day Weather Forecast

Advertisements
Track Severe Weather on mobile